createdAt,value
2018-09-22T00:00:24.885Z,92.12
2018-09-22T00:03:29.298Z,91.96
2018-09-22T00:06:33.694Z,91.55
2018-09-22T00:09:38.436Z,91.63
2018-09-22T00:12:42.895Z,91.52
2018-09-22T00:15:47.362Z,91.78
2018-09-22T00:18:51.782Z,91.14
2018-09-22T00:21:56.356Z,90.82
2018-09-22T00:25:00.754Z,90.83
2018-09-22T00:28:05.217Z,91.09
2018-09-22T00:31:09.679Z,91.24
2018-09-22T00:34:14.117Z,91.53
2018-09-22T00:37:18.637Z,91.68
2018-09-22T00:40:23.240Z,91.05
2018-09-22T00:43:27.651Z,91.65
2018-09-22T00:46:32.113Z,91.36
2018-09-22T00:49:36.803Z,92.42
2018-09-22T00:52:41.196Z,92.60
2018-09-22T00:55:45.669Z,92.72
2018-09-22T00:58:50.243Z,91.94
2018-09-22T01:01:54.687Z,91.42
2018-09-22T01:04:59.152Z,91.50
2018-09-22T01:08:03.605Z,91.57
2018-09-22T01:11:08.239Z,91.78
2018-09-22T01:14:12.727Z,91.46
2018-09-22T01:17:17.203Z,91.67
2018-09-22T01:20:21.787Z,92.08
2018-09-22T01:23:26.381Z,91.62
2018-09-22T01:26:30.829Z,92.48
2018-09-22T01:29:35.317Z,92.54
2018-09-22T01:32:39.763Z,92.51
2018-09-22T01:35:44.253Z,92.00
2018-09-22T01:38:48.703Z,92.12
2018-09-22T01:41:53.179Z,91.25
2018-09-22T01:44:57.617Z,91.36
2018-09-22T01:48:02.095Z,91.39
2018-09-22T01:51:06.552Z,91.54
2018-09-22T01:54:10.954Z,91.94
2018-09-22T01:57:15.369Z,91.73
2018-09-22T02:00:19.863Z,91.38
2018-09-22T02:03:24.384Z,91.76
2018-09-22T02:06:28.928Z,91.79
2018-09-22T02:09:33.346Z,92.31
2018-09-22T02:12:37.916Z,92.17
2018-09-22T02:15:42.462Z,92.50
2018-09-22T02:18:46.898Z,92.07
2018-09-22T02:21:51.358Z,92.22
2018-09-22T02:24:55.980Z,92.40
2018-09-22T02:28:00.467Z,92.29
2018-09-22T02:31:04.922Z,92.46
2018-09-22T02:34:09.438Z,92.02
2018-09-22T02:37:13.879Z,92.31
2018-09-22T02:40:18.335Z,92.70
2018-09-22T02:43:22.866Z,92.58
2018-09-22T02:46:27.343Z,92.70
2018-09-22T02:49:31.793Z,92.91
2018-09-22T02:52:36.279Z,92.53
2018-09-22T02:55:40.717Z,92.48
2018-09-22T02:58:45.211Z,92.47
2018-09-22T03:01:49.657Z,92.12
2018-09-22T03:04:54.075Z,92.08
2018-09-22T03:07:58.493Z,91.68
2018-09-22T03:11:02.949Z,91.59
2018-09-22T03:14:07.667Z,91.16
2018-09-22T03:17:12.114Z,91.11
2018-09-22T03:20:16.583Z,91.43
2018-09-22T03:23:21.437Z,91.59
2018-09-22T03:26:25.935Z,91.37
2018-09-22T03:29:30.405Z,92.32
2018-09-22T03:32:34.825Z,92.17
2018-09-22T03:35:39.205Z,92.73
2018-09-22T03:38:43.627Z,93.05
2018-09-22T03:41:48.101Z,93.08
2018-09-22T03:44:52.582Z,93.22
2018-09-22T03:47:57.035Z,93.48
2018-09-22T03:51:01.488Z,92.99
2018-09-22T03:54:06.049Z,93.61
2018-09-22T03:57:10.430Z,93.55
2018-09-22T04:00:14.869Z,93.87
2018-09-22T04:03:19.440Z,93.90
2018-09-22T04:06:23.872Z,93.67
2018-09-22T04:09:28.321Z,94.05
2018-09-22T04:12:32.723Z,94.10
2018-09-22T04:15:37.188Z,93.47
2018-09-22T04:18:41.644Z,93.40
2018-09-22T04:21:46.162Z,93.47
2018-09-22T04:24:50.643Z,93.07
2018-09-22T04:27:55.024Z,93.03
2018-09-22T04:30:59.575Z,93.38
2018-09-22T04:34:03.995Z,93.07
2018-09-22T04:37:08.470Z,93.24
2018-09-22T04:40:12.912Z,93.39
2018-09-22T04:43:17.361Z,93.47
2018-09-22T04:46:21.812Z,93.36
2018-09-22T04:49:26.364Z,93.93
2018-09-22T04:52:30.815Z,94.09
2018-09-22T04:55:35.455Z,93.69
2018-09-22T04:58:40.020Z,93.97
2018-09-22T05:01:44.439Z,93.83
2018-09-22T05:04:49.070Z,94.10
2018-09-22T05:07:53.705Z,94.11
2018-09-22T05:10:58.204Z,93.81
2018-09-22T05:14:02.702Z,93.83
2018-09-22T05:17:07.320Z,93.31
2018-09-22T05:20:11.707Z,93.69
2018-09-22T05:23:16.173Z,93.23
2018-09-22T05:26:20.611Z,93.75
2018-09-22T05:29:25.026Z,93.11
2018-09-22T05:32:29.442Z,93.11
2018-09-22T05:35:33.931Z,93.11
2018-09-22T05:38:38.534Z,93.12
2018-09-22T05:41:43.010Z,92.85
2018-09-22T05:44:47.425Z,92.30
2018-09-22T05:47:51.868Z,92.36
2018-09-22T05:50:56.318Z,91.09
2018-09-22T05:54:00.738Z,91.28
2018-09-22T05:57:05.237Z,91.65
2018-09-22T06:00:09.809Z,90.76
2018-09-22T06:03:14.307Z,90.91
2018-09-22T06:06:18.820Z,90.87
2018-09-22T06:09:23.261Z,91.21
2018-09-22T06:12:27.674Z,91.12
2018-09-22T06:15:32.108Z,90.02
2018-09-22T06:18:36.664Z,89.61
2018-09-22T06:21:41.129Z,89.13
2018-09-22T06:24:45.664Z,89.29
2018-09-22T06:27:50.233Z,88.30
2018-09-22T06:30:54.722Z,87.72
2018-09-22T06:33:59.269Z,87.39
2018-09-22T06:37:03.741Z,86.22
2018-09-22T06:40:08.182Z,85.64
2018-09-22T06:43:12.678Z,85.01
2018-09-22T06:46:17.197Z,84.07
2018-09-22T06:49:21.591Z,84.06
2018-09-22T06:52:26.182Z,84.12
2018-09-22T06:55:30.643Z,82.63
2018-09-22T06:58:35.256Z,82.33
2018-09-22T07:01:39.708Z,83.05
2018-09-22T07:04:45.039Z,82.99
2018-09-22T07:07:49.560Z,83.26
2018-09-22T07:10:54.169Z,81.24
2018-09-22T07:13:58.640Z,81.96
2018-09-22T07:17:03.757Z,82.59
2018-09-22T07:20:08.230Z,81.58
2018-09-22T07:23:14.175Z,80.44
2018-09-22T07:26:18.627Z,79.89
2018-09-22T07:29:23.406Z,79.75
2018-09-22T07:32:27.823Z,80.03
2018-09-22T07:35:32.323Z,78.20
2018-09-22T07:38:36.884Z,78.10
2018-09-22T07:41:41.449Z,78.62
2018-09-22T07:44:46.141Z,71.94
2018-09-22T07:47:50.578Z,74.41
2018-09-22T07:50:55.077Z,74.99
2018-09-22T07:53:59.561Z,69.42
2018-09-22T07:57:04.034Z,67.42
2018-09-22T08:00:08.638Z,69.02
2018-09-22T08:03:13.203Z,65.46
2018-09-22T08:06:17.772Z,65.82
2018-09-22T08:09:22.304Z,63.96
2018-09-22T08:12:26.792Z,64.43
2018-09-22T08:15:31.331Z,63.38
2018-09-22T08:18:35.967Z,63.79
2018-09-22T08:21:40.562Z,61.78
2018-09-22T08:24:45.114Z,62.54
2018-09-22T08:27:49.548Z,63.01
2018-09-22T08:30:54.297Z,62.68
2018-09-22T08:33:58.832Z,61.07
2018-09-22T08:37:03.446Z,60.36
2018-09-22T08:40:07.839Z,60.40
2018-09-22T08:43:12.289Z,58.31
2018-09-22T08:46:16.711Z,58.60
2018-09-22T08:49:21.144Z,56.75
2018-09-22T08:52:25.555Z,58.14
2018-09-22T08:55:31.095Z,57.67
2018-09-22T08:58:35.536Z,57.21
2018-09-22T09:01:39.996Z,57.55
2018-09-22T09:04:44.475Z,57.59
2018-09-22T09:07:48.952Z,55.93
2018-09-22T09:10:53.409Z,55.04
2018-09-22T09:13:57.929Z,55.63
2018-09-22T09:17:02.490Z,52.09
2018-09-22T09:20:06.994Z,54.51
2018-09-22T09:23:11.459Z,52.08
2018-09-22T09:26:15.969Z,53.59
2018-09-22T09:29:20.446Z,52.51
2018-09-22T09:32:24.890Z,52.73
2018-09-22T09:35:29.457Z,51.14
2018-09-22T09:38:34.979Z,51.88
2018-09-22T09:41:39.451Z,51.59
2018-09-22T09:44:43.892Z,51.25
2018-09-22T09:47:48.381Z,49.05
2018-09-22T09:50:52.889Z,50.13
2018-09-22T09:53:57.338Z,49.22
2018-09-22T09:57:01.807Z,50.37
2018-09-22T10:00:06.768Z,47.72
2018-09-22T10:03:11.236Z,46.35
2018-09-22T10:06:15.816Z,47.42
2018-09-22T10:09:20.254Z,44.74
2018-09-22T10:12:24.711Z,47.07
2018-09-22T10:15:29.157Z,47.07
2018-09-22T10:18:33.704Z,46.66
2018-09-22T10:21:38.154Z,45.80
2018-09-22T10:24:42.607Z,46.13
2018-09-22T10:27:47.079Z,46.49
2018-09-22T10:30:51.521Z,44.63
2018-09-22T10:33:55.999Z,46.78
2018-09-22T10:37:00.429Z,45.77
2018-09-22T10:40:04.945Z,47.13
2018-09-22T10:43:09.593Z,46.25
2018-09-22T10:46:14.159Z,46.16
2018-09-22T10:49:18.702Z,46.79
2018-09-22T10:52:23.202Z,47.57
2018-09-22T10:55:27.651Z,47.06
2018-09-22T10:58:32.114Z,47.86
2018-09-22T11:01:36.570Z,48.86
2018-09-22T11:04:41.090Z,48.54
2018-09-22T11:07:45.550Z,46.03
2018-09-22T11:10:49.998Z,47.67
2018-09-22T11:13:54.540Z,46.42
2018-09-22T11:16:59.029Z,48.40
2018-09-22T11:20:03.525Z,46.48
2018-09-22T11:23:07.959Z,46.21
2018-09-22T11:26:12.419Z,45.89
2018-09-22T11:29:16.894Z,46.56
2018-09-22T11:32:21.356Z,44.78
2018-09-22T11:35:25.813Z,45.49
2018-09-22T11:38:30.285Z,43.78
2018-09-22T11:41:34.796Z,44.74
2018-09-22T11:44:39.359Z,46.69
2018-09-22T11:47:43.963Z,47.09
2018-09-22T11:50:48.541Z,46.36
2018-09-22T11:53:53.201Z,46.23
2018-09-22T11:56:57.801Z,46.97
2018-09-22T12:00:02.365Z,47.00
2018-09-22T12:03:06.843Z,44.16
2018-09-22T12:06:11.473Z,45.94
2018-09-22T12:09:16.078Z,44.51
2018-09-22T12:12:20.827Z,44.80
2018-09-22T12:15:25.400Z,44.84
2018-09-22T12:18:29.959Z,42.54
2018-09-22T12:21:34.609Z,42.39
2018-09-22T12:24:39.338Z,43.69
2018-09-22T12:27:44.064Z,43.26
2018-09-22T12:30:48.575Z,42.77
2018-09-22T12:33:53.433Z,41.22
2018-09-22T12:36:58.049Z,40.66
2018-09-22T12:40:02.565Z,41.24
2018-09-22T12:43:07.542Z,41.14
2018-09-22T12:46:12.213Z,42.01
2018-09-22T12:49:16.778Z,41.02
2018-09-22T12:52:21.304Z,42.60
2018-09-22T12:55:25.851Z,42.58
2018-09-22T12:58:30.448Z,41.65
2018-09-22T13:01:34.991Z,41.80
2018-09-22T13:04:39.611Z,40.21
2018-09-22T13:07:44.134Z,42.00
2018-09-22T13:10:48.673Z,42.23
2018-09-22T13:13:53.344Z,41.27
2018-09-22T13:16:57.800Z,41.90
2018-09-22T13:20:02.395Z,39.45
2018-09-22T13:23:07.258Z,40.10
2018-09-22T13:26:11.690Z,40.54
2018-09-22T13:29:16.147Z,39.63
2018-09-22T13:32:20.711Z,40.32
2018-09-22T13:35:25.209Z,40.32
2018-09-22T13:38:29.966Z,41.59
2018-09-22T13:41:34.477Z,41.59
2018-09-22T13:44:38.973Z,41.26
2018-09-22T13:47:43.399Z,42.26
2018-09-22T13:50:47.923Z,41.69
2018-09-22T13:53:52.342Z,41.76
2018-09-22T13:56:56.804Z,40.72
2018-09-22T14:00:01.274Z,40.88
2018-09-22T14:03:05.920Z,40.16
2018-09-22T14:06:10.466Z,39.33
2018-09-22T14:09:14.916Z,40.69
2018-09-22T14:12:19.587Z,39.40
2018-09-22T14:15:24.004Z,39.15
2018-09-22T14:18:28.512Z,39.67
2018-09-22T14:21:33.277Z,39.78
2018-09-22T14:24:37.810Z,40.55
2018-09-22T14:27:42.231Z,39.49
2018-09-22T14:30:46.966Z,40.09
2018-09-22T14:33:51.479Z,40.91
2018-09-22T14:36:56.067Z,40.65
2018-09-22T14:40:00.507Z,40.19
2018-09-22T14:43:04.928Z,40.97
2018-09-22T14:46:09.383Z,39.69
2018-09-22T14:49:13.844Z,42.53
2018-09-22T14:52:18.325Z,42.21
2018-09-22T14:55:22.827Z,43.10
2018-09-22T14:58:28.243Z,42.56
2018-09-22T15:01:32.715Z,44.19
2018-09-22T15:04:37.221Z,44.28
2018-09-22T15:07:41.887Z,43.67
2018-09-22T15:10:46.385Z,43.83
2018-09-22T15:13:50.850Z,44.38
2018-09-22T15:16:55.364Z,44.47
2018-09-22T15:19:59.790Z,43.34
2018-09-22T15:23:04.287Z,44.25
2018-09-22T15:26:08.800Z,43.64
2018-09-22T15:29:13.322Z,44.44
2018-09-22T15:32:17.791Z,44.47
2018-09-22T15:35:22.251Z,43.22
2018-09-22T15:38:26.721Z,44.53
2018-09-22T15:41:31.398Z,44.93
2018-09-22T15:44:35.921Z,45.00
2018-09-22T15:47:40.384Z,45.81
2018-09-22T15:50:45.830Z,46.42
2018-09-22T15:53:50.341Z,47.19
2018-09-22T15:56:54.761Z,47.47
2018-09-22T15:59:59.211Z,47.45
2018-09-22T16:03:03.733Z,44.68
2018-09-22T16:06:08.211Z,45.82
2018-09-22T16:09:12.647Z,46.00
2018-09-22T16:12:18.291Z,46.23
2018-09-22T16:15:22.752Z,46.75
2018-09-22T16:18:27.385Z,48.94
2018-09-22T16:21:32.181Z,49.65
2018-09-22T16:24:36.634Z,52.73
2018-09-22T16:27:41.169Z,49.84
2018-09-22T16:30:45.650Z,53.35
2018-09-22T16:33:50.387Z,53.53
2018-09-22T16:36:54.808Z,55.79
2018-09-22T16:39:59.384Z,57.40
2018-09-22T16:43:03.982Z,56.09
2018-09-22T16:46:08.679Z,57.55
2018-09-22T16:49:13.207Z,56.23
2018-09-22T16:52:17.661Z,54.42
2018-09-22T16:55:22.140Z,53.16
2018-09-22T16:58:26.682Z,53.18
2018-09-22T17:01:31.148Z,52.79
2018-09-22T17:04:35.608Z,54.02
2018-09-22T17:07:40.063Z,51.32
2018-09-22T17:10:44.508Z,52.74
2018-09-22T17:13:48.986Z,53.37
2018-09-22T17:16:53.575Z,54.71
2018-09-22T17:19:58.036Z,53.40
2018-09-22T17:23:02.476Z,57.11
2018-09-22T17:26:06.997Z,53.72
2018-09-22T17:29:11.531Z,55.18
2018-09-22T17:32:16.143Z,55.60
2018-09-22T17:35:20.601Z,56.38
2018-09-22T17:38:25.119Z,60.71
2018-09-22T17:41:29.544Z,60.40
2018-09-22T17:44:34.016Z,57.41
2018-09-22T17:47:38.472Z,58.47
2018-09-22T17:50:42.910Z,62.20
2018-09-22T17:53:47.471Z,62.65
2018-09-22T17:56:51.979Z,64.17
2018-09-22T17:59:56.487Z,65.60
2018-09-22T18:03:01.029Z,66.96
2018-09-22T18:06:05.774Z,67.79
2018-09-22T18:09:10.532Z,68.96
2018-09-22T18:12:15.087Z,70.14
2018-09-22T18:15:19.652Z,68.68
2018-09-22T18:18:24.172Z,71.98
2018-09-22T18:21:29.225Z,72.48
2018-09-22T18:24:33.812Z,73.48
2018-09-22T18:27:38.371Z,71.16
2018-09-22T18:30:42.877Z,73.71
2018-09-22T18:33:47.558Z,76.78
2018-09-22T18:36:52.028Z,76.67
2018-09-22T18:39:56.505Z,76.45
2018-09-22T18:43:00.984Z,75.84
2018-09-22T18:46:05.437Z,78.53
2018-09-22T18:49:09.955Z,78.96
2018-09-22T18:52:14.431Z,78.60
2018-09-22T18:55:18.905Z,77.20
2018-09-22T18:58:23.369Z,76.63
2018-09-22T19:01:28.069Z,77.71
2018-09-22T19:04:32.590Z,78.69
2018-09-22T19:07:37.157Z,76.42
2018-09-22T19:10:41.682Z,73.17
2018-09-22T19:14:54.366Z,74.99
2018-09-22T19:18:04.469Z,72.05
2018-09-22T19:22:13.684Z,73.61
2018-09-22T19:25:20.389Z,74.31
2018-09-22T19:28:30.252Z,76.04
2018-09-22T19:31:45.484Z,75.75
2018-09-22T19:34:53.415Z,73.39
2018-09-22T19:38:02.747Z,75.72
2018-09-22T19:41:12.388Z,74.31
2018-09-22T19:44:21.445Z,76.21
2018-09-22T19:48:00.138Z,77.81
2018-09-22T19:51:08.335Z,77.48
2018-09-22T19:54:12.963Z,77.54
2018-09-22T19:57:17.506Z,76.63
2018-09-22T20:00:22.043Z,76.80
2018-09-22T20:03:26.559Z,77.21
2018-09-22T20:06:31.098Z,78.69
2018-09-22T20:09:36.035Z,79.08
2018-09-22T20:12:40.557Z,78.87
2018-09-22T20:15:45.122Z,79.23
2018-09-22T20:18:49.578Z,78.79
2018-09-22T20:21:54.408Z,80.16
2018-09-22T20:24:59.915Z,80.14
2018-09-22T20:28:04.493Z,79.25
2018-09-22T20:31:09.575Z,80.16
2018-09-22T20:34:15.213Z,79.70
2018-09-22T20:37:19.911Z,78.50
2018-09-22T20:40:24.582Z,77.94
2018-09-22T20:43:29.336Z,78.12
2018-09-22T20:46:34.068Z,78.98
2018-09-22T20:49:38.518Z,80.72
2018-09-22T20:52:43.113Z,81.70
2018-09-22T20:55:47.678Z,81.11
2018-09-22T20:58:52.305Z,80.85
2018-09-22T21:01:56.834Z,81.58
2018-09-22T21:05:01.435Z,81.84
2018-09-22T21:08:05.978Z,83.94
2018-09-22T21:11:10.510Z,83.69
2018-09-22T21:14:15.018Z,83.51
2018-09-22T21:17:20.189Z,82.94
2018-09-22T21:20:24.669Z,83.43
2018-09-22T21:23:29.120Z,84.16
2018-09-22T21:26:33.666Z,83.74
2018-09-22T21:29:38.352Z,84.84
2018-09-22T21:32:42.814Z,85.05
2018-09-22T21:35:47.315Z,85.25
2018-09-22T21:38:51.766Z,84.04
2018-09-22T21:41:56.249Z,84.76
2018-09-22T21:45:00.688Z,85.70
2018-09-22T21:48:05.175Z,85.57
2018-09-22T21:51:09.748Z,83.90
2018-09-22T21:54:14.225Z,84.55
2018-09-22T21:57:18.705Z,83.79
2018-09-22T22:00:23.436Z,84.89
2018-09-22T22:03:27.919Z,85.42
2018-09-22T22:06:32.470Z,85.36
2018-09-22T22:09:37.026Z,85.71
2018-09-22T22:12:41.572Z,85.70
2018-09-22T22:15:46.161Z,85.47
2018-09-22T22:18:50.651Z,84.73
2018-09-22T22:21:55.170Z,84.03
2018-09-22T22:24:59.860Z,83.98
2018-09-22T22:28:04.563Z,83.96
2018-09-22T22:31:09.133Z,85.46
2018-09-22T22:34:13.688Z,86.90
2018-09-22T22:37:18.178Z,84.56
2018-09-22T22:40:22.741Z,85.11
2018-09-22T22:43:27.493Z,85.44
2018-09-22T22:46:32.115Z,84.96
2018-09-22T22:49:36.652Z,85.89
2018-09-22T22:52:41.170Z,86.29
2018-09-22T22:55:45.611Z,85.20
2018-09-22T22:58:50.126Z,85.88
2018-09-22T23:01:54.773Z,86.61
2018-09-22T23:04:59.235Z,86.95
2018-09-22T23:08:04.109Z,86.85
2018-09-22T23:11:08.691Z,86.58
2018-09-22T23:14:13.168Z,86.98
2018-09-22T23:17:17.684Z,86.97
2018-09-22T23:20:22.252Z,87.23
2018-09-22T23:23:26.898Z,87.20
2018-09-22T23:26:31.425Z,87.41
2018-09-22T23:29:35.917Z,86.53
2018-09-22T23:32:40.459Z,86.71
2018-09-22T23:35:44.982Z,86.96
2018-09-22T23:38:49.446Z,87.46
2018-09-22T23:41:53.964Z,87.05
2018-09-22T23:44:58.544Z,87.31
2018-09-22T23:48:03.015Z,87.19
2018-09-22T23:51:07.837Z,87.87
2018-09-22T23:54:12.461Z,87.80
2018-09-22T23:57:16.928Z,88.99
